createdAt,value
2019-02-08T00:00:13.978Z,0.00
2019-02-08T00:02:18.643Z,0.00
2019-02-08T00:03:18.885Z,0.00
2019-02-08T00:05:23.519Z,0.00
2019-02-08T00:06:23.755Z,0.00
2019-02-08T00:08:28.417Z,0.00
2019-02-08T00:09:28.647Z,0.00
2019-02-08T00:11:33.325Z,0.00
2019-02-08T00:12:33.557Z,0.00
2019-02-08T00:14:38.213Z,0.00
2019-02-08T00:15:38.446Z,0.00
2019-02-08T00:17:43.115Z,0.00
2019-02-08T00:18:43.349Z,0.00
2019-02-08T00:20:47.495Z,0.00
2019-02-08T00:21:47.732Z,0.00
2019-02-08T00:23:52.411Z,0.00
2019-02-08T00:24:52.641Z,0.00
2019-02-08T00:26:46.225Z,0.00
2019-02-08T00:27:46.468Z,0.00
2019-02-08T00:29:51.102Z,0.00
2019-02-08T00:30:51.335Z,0.00
2019-02-08T00:32:56.005Z,0.00
2019-02-08T00:33:56.240Z,0.00
2019-02-08T00:36:00.385Z,0.00
2019-02-08T00:37:00.619Z,0.00
2019-02-08T00:39:04.796Z,0.00
2019-02-08T00:40:05.030Z,0.00
2019-02-08T00:42:09.694Z,0.00
2019-02-08T00:43:09.927Z,0.00
2019-02-08T00:45:14.569Z,0.00
2019-02-08T00:46:14.805Z,0.00
2019-02-08T00:48:18.981Z,0.00
2019-02-08T00:49:19.216Z,0.00
2019-02-08T00:51:23.859Z,0.00
2019-02-08T00:52:24.094Z,0.00
2019-02-08T00:54:28.271Z,0.00
2019-02-08T00:55:28.503Z,0.00
2019-02-08T00:57:21.600Z,0.00
2019-02-08T00:58:21.830Z,0.00
2019-02-08T01:00:26.474Z,0.00
2019-02-08T01:01:26.708Z,0.00
2019-02-08T01:03:30.880Z,0.00
2019-02-08T01:04:31.121Z,0.00
2019-02-08T01:06:35.765Z,0.00
2019-02-08T01:07:36.001Z,0.00
2019-02-08T01:09:40.660Z,0.00
2019-02-08T01:10:40.894Z,0.00
2019-02-08T01:12:45.558Z,0.00
2019-02-08T01:13:45.791Z,0.00
2019-02-08T01:15:49.939Z,0.00
2019-02-08T01:16:50.173Z,0.00
2019-02-08T01:18:54.341Z,0.00
2019-02-08T01:19:54.580Z,0.00
2019-02-08T01:21:58.727Z,0.00
2019-02-08T01:22:58.964Z,0.00
2019-02-08T01:25:03.132Z,0.00
2019-02-08T01:26:03.372Z,0.00
2019-02-08T01:28:07.538Z,0.00
2019-02-08T01:29:07.769Z,0.00
2019-02-08T01:31:11.920Z,0.00
2019-02-08T01:32:12.149Z,0.00
2019-02-08T01:34:16.320Z,0.00
2019-02-08T01:35:16.555Z,0.00
2019-02-08T01:37:10.125Z,0.00
2019-02-08T01:38:10.359Z,0.00
2019-02-08T01:40:14.535Z,0.00
2019-02-08T01:41:14.761Z,0.00
2019-02-08T01:43:18.935Z,0.00
2019-02-08T01:44:19.168Z,0.00
2019-02-08T01:46:23.330Z,0.00
2019-02-08T01:47:23.562Z,0.00
2019-02-08T01:49:28.221Z,0.00
2019-02-08T01:50:28.459Z,0.00
2019-02-08T01:52:33.099Z,0.00
2019-02-08T01:53:33.334Z,0.00
2019-02-08T01:55:37.510Z,0.00
2019-02-08T01:56:37.745Z,0.00
2019-02-08T01:58:41.919Z,0.00
2019-02-08T01:59:42.150Z,0.00
2019-02-08T02:01:46.303Z,0.00
2019-02-08T02:02:46.539Z,0.00
2019-02-08T02:04:51.205Z,0.00
2019-02-08T02:05:51.441Z,0.00
2019-02-08T02:07:56.083Z,0.00
2019-02-08T02:08:56.319Z,0.00
2019-02-08T02:11:00.488Z,0.00
2019-02-08T02:12:00.721Z,0.00
2019-02-08T02:14:04.901Z,0.00
2019-02-08T02:15:05.139Z,0.00
2019-02-08T02:16:58.217Z,0.00
2019-02-08T02:17:58.451Z,0.00
2019-02-08T02:20:02.626Z,0.00
2019-02-08T02:21:02.858Z,0.00
2019-02-08T02:23:07.504Z,0.00
2019-02-08T02:24:07.738Z,0.00
2019-02-08T02:26:12.920Z,0.00
2019-02-08T02:27:13.152Z,0.00
2019-02-08T02:29:17.320Z,0.00
2019-02-08T02:30:17.571Z,0.00
2019-02-08T02:32:21.698Z,0.00
2019-02-08T02:33:21.949Z,0.00
2019-02-08T02:35:26.110Z,0.00
2019-02-08T02:36:26.335Z,0.00
2019-02-08T02:38:30.517Z,0.00
2019-02-08T02:39:30.720Z,0.00
2019-02-08T02:41:34.900Z,0.00
2019-02-08T02:42:35.133Z,0.00
2019-02-08T02:44:39.301Z,0.00
2019-02-08T02:45:39.534Z,0.00
2019-02-08T02:47:44.175Z,0.00
2019-02-08T02:48:44.409Z,0.00
2019-02-08T02:50:48.577Z,0.00
2019-02-08T02:51:48.812Z,0.00
2019-02-08T02:53:53.457Z,0.00
2019-02-08T02:54:53.689Z,0.00
2019-02-08T02:56:47.280Z,0.00
2019-02-08T02:57:47.516Z,0.00
2019-02-08T02:59:51.687Z,0.00
2019-02-08T03:00:51.918Z,0.00
2019-02-08T03:02:56.066Z,0.00
2019-02-08T03:03:56.297Z,0.00
2019-02-08T03:06:00.471Z,0.00
2019-02-08T03:07:00.711Z,0.00
2019-02-08T03:09:04.854Z,0.00
2019-02-08T03:10:05.087Z,0.00
2019-02-08T03:12:09.750Z,0.00
2019-02-08T03:13:09.987Z,0.00
2019-02-08T03:15:14.129Z,0.00
2019-02-08T03:16:14.364Z,0.00
2019-02-08T03:18:18.546Z,0.00
2019-02-08T03:19:18.770Z,0.00
2019-02-08T03:21:22.934Z,0.00
2019-02-08T03:22:23.169Z,0.00
2019-02-08T03:24:27.323Z,0.00
2019-02-08T03:25:27.561Z,0.00
2019-02-08T03:27:20.662Z,0.00
2019-02-08T03:28:20.892Z,0.00
2019-02-08T03:30:25.065Z,0.00
2019-02-08T03:31:25.273Z,0.00
2019-02-08T03:33:29.437Z,0.00
2019-02-08T03:34:29.673Z,0.00
2019-02-08T03:36:33.843Z,0.00
2019-02-08T03:37:34.077Z,0.00
2019-02-08T03:39:38.725Z,0.00
2019-02-08T03:40:38.955Z,0.00
2019-02-08T03:42:43.618Z,0.00
2019-02-08T03:43:43.854Z,0.00
2019-02-08T03:45:48.499Z,0.00
2019-02-08T03:46:48.737Z,0.00
2019-02-08T03:48:52.900Z,0.00
2019-02-08T03:49:53.136Z,0.00
2019-02-08T03:51:57.313Z,0.00
2019-02-08T03:52:57.548Z,0.00
2019-02-08T03:55:01.692Z,0.00
2019-02-08T03:56:01.923Z,0.00
2019-02-08T03:58:06.090Z,0.00
2019-02-08T03:59:06.323Z,0.00
2019-02-08T04:01:10.467Z,0.00
2019-02-08T04:02:10.702Z,0.00
2019-02-08T04:04:15.367Z,0.00
2019-02-08T04:05:15.600Z,0.00
2019-02-08T04:07:08.684Z,0.00
2019-02-08T04:08:08.920Z,0.00
2019-02-08T04:10:13.089Z,0.00
2019-02-08T04:11:13.324Z,0.00
2019-02-08T04:13:17.503Z,0.00
2019-02-08T04:14:17.733Z,0.00
2019-02-08T04:16:21.887Z,0.00
2019-02-08T04:17:22.122Z,0.00
2019-02-08T04:19:26.290Z,0.00
2019-02-08T04:20:26.530Z,0.00
2019-02-08T04:22:30.694Z,0.00
2019-02-08T04:23:30.929Z,0.00
2019-02-08T04:25:35.095Z,0.00
2019-02-08T04:26:35.338Z,0.00
2019-02-08T04:28:39.503Z,0.00
2019-02-08T04:29:39.737Z,0.00
2019-02-08T04:31:44.392Z,0.00
2019-02-08T04:32:44.628Z,0.00
2019-02-08T04:34:49.284Z,0.00
2019-02-08T04:35:49.513Z,0.00
2019-02-08T04:37:54.153Z,0.00
2019-02-08T04:38:54.395Z,0.00
2019-02-08T04:40:58.568Z,0.00
2019-02-08T04:41:58.803Z,0.00
2019-02-08T04:44:02.969Z,0.00
2019-02-08T04:45:03.203Z,0.00
2019-02-08T04:46:56.283Z,0.00
2019-02-08T04:47:56.522Z,0.00
2019-02-08T04:50:01.187Z,0.00
2019-02-08T04:51:01.421Z,0.00
2019-02-08T04:53:06.065Z,0.00
2019-02-08T04:54:06.300Z,0.00
2019-02-08T04:56:10.467Z,0.00
2019-02-08T04:57:10.703Z,0.00
2019-02-08T04:59:14.869Z,0.00
2019-02-08T05:00:15.101Z,0.00
2019-02-08T05:02:19.249Z,0.00
2019-02-08T05:03:19.485Z,0.00
2019-02-08T05:05:23.668Z,0.00
2019-02-08T05:06:23.884Z,0.00
2019-02-08T05:08:28.042Z,0.00
2019-02-08T05:09:28.280Z,0.00
2019-02-08T05:11:32.446Z,0.00
2019-02-08T05:12:32.680Z,0.00
2019-02-08T05:14:37.343Z,0.00
2019-02-08T05:15:37.580Z,0.00
2019-02-08T05:17:31.139Z,0.00
2019-02-08T05:18:31.373Z,0.00
2019-02-08T05:20:35.544Z,0.00
2019-02-08T05:21:35.778Z,0.00
2019-02-08T05:23:39.933Z,0.00
2019-02-08T05:24:45.875Z,0.00
2019-02-08T05:26:33.761Z,0.00
2019-02-08T05:27:33.994Z,0.00
2019-02-08T05:29:38.170Z,0.00
2019-02-08T05:30:38.411Z,0.00
2019-02-08T05:32:43.045Z,0.00
2019-02-08T05:33:43.280Z,0.00
2019-02-08T05:35:47.939Z,0.00
2019-02-08T05:36:48.168Z,0.00
2019-02-08T05:38:52.819Z,0.00
2019-02-08T05:39:53.043Z,0.00
2019-02-08T05:41:57.215Z,0.00
2019-02-08T05:42:57.450Z,0.00
2019-02-08T05:45:01.644Z,0.00
2019-02-08T05:46:01.870Z,0.00
2019-02-08T05:48:06.026Z,0.00
2019-02-08T05:49:06.258Z,0.00
2019-02-08T05:51:10.921Z,0.00
2019-02-08T05:52:11.155Z,0.00
2019-02-08T05:54:15.798Z,0.00
2019-02-08T05:55:16.037Z,0.00
2019-02-08T05:57:09.621Z,0.00
2019-02-08T05:58:09.857Z,0.00
2019-02-08T06:00:14.495Z,0.00
2019-02-08T06:01:14.732Z,0.00
2019-02-08T06:03:19.403Z,0.00
2019-02-08T06:04:19.637Z,0.00
2019-02-08T06:06:32.946Z,0.00
2019-02-08T06:07:24.691Z,0.00
2019-02-08T06:09:29.336Z,0.00
2019-02-08T06:10:29.567Z,0.00
2019-02-08T06:12:34.236Z,0.00
2019-02-08T06:13:34.479Z,0.00
2019-02-08T06:15:39.169Z,0.00
2019-02-08T06:16:39.373Z,0.00
2019-02-08T06:18:44.016Z,0.00
2019-02-08T06:19:44.266Z,0.00
2019-02-08T06:21:48.937Z,0.00
2019-02-08T06:22:49.164Z,4.00
2019-02-08T06:24:53.822Z,4.00
2019-02-08T06:25:54.047Z,0.00
2019-02-08T06:27:58.715Z,8.00
2019-02-08T06:28:58.947Z,4.00
2019-02-08T06:31:03.619Z,8.00
2019-02-08T06:32:03.852Z,8.00
2019-02-08T06:34:08.503Z,12.00
2019-02-08T06:35:08.811Z,12.00
2019-02-08T06:37:02.363Z,20.00
2019-02-08T06:38:02.582Z,16.00
2019-02-08T06:40:07.239Z,28.00
2019-02-08T06:41:07.462Z,24.00
2019-02-08T06:43:12.164Z,28.00
2019-02-08T06:44:12.403Z,36.00
2019-02-08T06:46:17.035Z,44.00
2019-02-08T06:47:17.253Z,44.00
2019-02-08T06:49:21.929Z,56.00
2019-02-08T06:50:22.128Z,56.00
2019-02-08T06:52:26.858Z,64.00
2019-02-08T06:53:27.056Z,68.00
2019-02-08T06:55:31.192Z,84.00
2019-02-08T06:56:31.423Z,92.00
2019-02-08T06:58:35.577Z,120.00
2019-02-08T06:59:35.810Z,132.00
2019-02-08T07:01:40.654Z,164.00
2019-02-08T07:02:40.722Z,192.00
2019-02-08T07:04:45.521Z,216.00
2019-02-08T07:05:45.622Z,252.00
2019-02-08T07:07:50.262Z,288.00
2019-02-08T07:08:50.547Z,316.00
2019-02-08T07:10:55.253Z,412.00
2019-02-08T07:11:55.441Z,432.00
2019-02-08T07:14:00.119Z,440.00
2019-02-08T07:15:00.279Z,440.00
2019-02-08T07:16:53.340Z,432.00
2019-02-08T07:17:53.576Z,472.00
2019-02-08T07:19:57.742Z,600.00
2019-02-08T07:20:57.979Z,620.00
2019-02-08T07:23:02.145Z,680.00
2019-02-08T07:24:02.380Z,716.00
2019-02-08T07:26:06.534Z,840.00
2019-02-08T07:27:06.763Z,956.00
2019-02-08T07:29:11.418Z,856.00
2019-02-08T07:30:11.661Z,840.00
2019-02-08T07:32:15.806Z,704.00
2019-02-08T07:33:16.043Z,712.00
2019-02-08T07:35:20.226Z,1004.00
2019-02-08T07:36:20.451Z,904.00
2019-02-08T07:38:24.627Z,880.00
2019-02-08T07:39:24.861Z,784.00
2019-02-08T07:41:29.525Z,1108.00
2019-02-08T07:42:29.753Z,1272.00
2019-02-08T07:44:33.917Z,1588.00
2019-02-08T07:45:34.151Z,1588.00
2019-02-08T07:47:27.226Z,1684.00
2019-02-08T07:48:27.459Z,2080.00
2019-02-08T07:50:31.628Z,3172.00
2019-02-08T07:51:31.863Z,2996.00
2019-02-08T07:53:36.036Z,2420.00
2019-02-08T07:54:36.274Z,2132.00
2019-02-08T07:56:40.420Z,2136.00
2019-02-08T07:57:40.655Z,2580.00
2019-02-08T07:59:44.831Z,2832.00
2019-02-08T08:00:45.066Z,2688.00
2019-02-08T08:02:49.212Z,2828.00
2019-02-08T08:03:49.550Z,2972.00
2019-02-08T08:05:55.104Z,2880.00
2019-02-08T08:06:55.349Z,2840.00
2019-02-08T08:08:59.508Z,2424.00
2019-02-08T08:09:59.757Z,2188.00
2019-02-08T08:12:03.884Z,2204.00
2019-02-08T08:13:04.120Z,1916.00
2019-02-08T08:15:08.290Z,1528.00
2019-02-08T08:16:08.523Z,1512.00
2019-02-08T08:18:12.682Z,1372.00
2019-02-08T08:19:12.917Z,1136.00
2019-02-08T08:21:17.090Z,980.00
2019-02-08T08:22:17.324Z,1012.00
2019-02-08T08:24:21.500Z,1180.00
2019-02-08T08:25:21.737Z,1396.00
2019-02-08T08:27:14.816Z,1548.00
2019-02-08T08:28:15.047Z,1680.00
2019-02-08T08:30:19.215Z,1672.00
2019-02-08T08:31:19.449Z,1832.00
2019-02-08T08:33:23.607Z,1928.00
2019-02-08T08:34:23.843Z,1956.00
2019-02-08T08:36:28.502Z,2196.00
2019-02-08T08:37:28.737Z,2164.00
2019-02-08T08:39:32.911Z,2136.00
2019-02-08T08:40:33.153Z,2184.00
2019-02-08T08:42:37.294Z,3492.00
2019-02-08T08:43:37.531Z,3108.00
2019-02-08T08:45:41.696Z,5476.00
2019-02-08T08:46:41.927Z,5424.00
2019-02-08T08:48:46.077Z,4216.00
2019-02-08T08:49:46.311Z,3392.00
2019-02-08T08:51:50.483Z,3736.00
2019-02-08T08:52:50.717Z,4356.00
2019-02-08T08:54:54.895Z,2672.00
2019-02-08T08:55:55.127Z,2872.00
2019-02-08T08:57:59.279Z,2520.00
2019-02-08T08:58:59.513Z,2564.00
2019-02-08T09:01:03.683Z,2228.00
2019-02-08T09:02:03.918Z,2064.00
2019-02-08T09:04:08.064Z,2192.00
2019-02-08T09:05:08.302Z,2100.00
2019-02-08T09:07:01.397Z,2440.00
2019-02-08T09:08:01.635Z,2812.00
2019-02-08T09:10:06.303Z,3280.00
2019-02-08T09:11:06.539Z,2852.00
2019-02-08T09:13:14.810Z,2376.00
2019-02-08T09:14:11.424Z,2640.00
2019-02-08T09:16:15.606Z,3028.00
2019-02-08T09:17:15.844Z,3080.00
2019-02-08T09:19:20.000Z,3168.00
2019-02-08T09:20:20.233Z,3464.00
2019-02-08T09:22:24.396Z,4296.00
2019-02-08T09:23:24.629Z,4456.00
2019-02-08T09:25:28.806Z,3632.00
2019-02-08T09:26:29.040Z,5648.00
2019-02-08T09:28:33.195Z,5816.00
2019-02-08T09:29:33.435Z,6836.00
2019-02-08T09:31:37.609Z,6836.00
2019-02-08T09:32:37.848Z,7096.00
2019-02-08T09:34:42.019Z,8828.00
2019-02-08T09:35:42.253Z,10800.00
2019-02-08T09:37:46.434Z,10296.00
2019-02-08T09:38:46.665Z,10252.00
2019-02-08T09:40:39.787Z,10564.00
2019-02-08T09:41:40.021Z,11528.00
2019-02-08T09:43:44.176Z,8648.00
2019-02-08T09:44:44.409Z,8064.00
2019-02-08T09:46:37.518Z,9692.00
2019-02-08T09:47:37.755Z,11528.00
2019-02-08T09:49:41.906Z,13064.00
2019-02-08T09:50:42.144Z,12632.00
2019-02-08T09:52:46.320Z,9484.00
2019-02-08T09:53:46.556Z,9340.00
2019-02-08T09:55:57.492Z,8640.00
2019-02-08T09:56:50.965Z,7448.00
2019-02-08T09:58:55.127Z,7880.00
2019-02-08T09:59:55.360Z,9492.00
2019-02-08T10:01:59.537Z,11780.00
2019-02-08T10:02:59.776Z,8188.00
2019-02-08T10:05:03.927Z,8204.00
2019-02-08T10:06:04.162Z,13536.00
2019-02-08T10:08:08.343Z,8964.00
2019-02-08T10:09:08.580Z,7300.00
2019-02-08T10:11:12.760Z,5768.00
2019-02-08T10:12:12.999Z,5232.00
2019-02-08T10:14:17.154Z,9120.00
2019-02-08T10:15:17.384Z,11200.00
2019-02-08T10:17:10.487Z,9420.00
2019-02-08T10:18:10.727Z,8436.00
2019-02-08T10:20:14.879Z,5652.00
2019-02-08T10:21:15.114Z,5212.00
2019-02-08T10:23:19.290Z,7344.00
2019-02-08T10:24:19.528Z,6344.00
2019-02-08T10:26:23.706Z,6836.00
2019-02-08T10:27:23.944Z,7020.00
2019-02-08T10:29:28.092Z,6964.00
2019-02-08T10:30:28.329Z,6532.00
2019-02-08T10:32:32.510Z,8124.00
2019-02-08T10:33:32.746Z,8888.00
2019-02-08T10:35:36.902Z,9092.00
2019-02-08T10:36:37.140Z,9084.00
2019-02-08T10:38:41.312Z,9940.00
2019-02-08T10:39:41.550Z,12388.00
2019-02-08T10:41:45.721Z,8212.00
2019-02-08T10:42:46.005Z,8780.00
2019-02-08T10:44:50.124Z,7720.00
2019-02-08T10:45:50.362Z,7312.00
2019-02-08T10:47:54.547Z,7808.00
2019-02-08T10:48:54.784Z,7780.00
2019-02-08T10:50:58.944Z,9252.00
2019-02-08T10:51:59.180Z,8944.00
2019-02-08T10:54:03.363Z,8968.00
2019-02-08T10:55:03.606Z,7868.00
2019-02-08T10:56:56.715Z,9320.00
2019-02-08T10:57:56.967Z,8904.00
2019-02-08T11:00:01.118Z,6584.00
2019-02-08T11:01:01.348Z,6508.00
2019-02-08T11:03:05.525Z,6560.00
2019-02-08T11:04:05.763Z,7204.00
2019-02-08T11:06:09.929Z,6544.00
2019-02-08T11:07:10.159Z,7052.00
2019-02-08T11:09:14.348Z,7764.00
2019-02-08T11:10:14.579Z,9608.00
2019-02-08T11:12:18.758Z,10236.00
2019-02-08T11:13:18.991Z,10524.00
2019-02-08T11:15:23.152Z,6716.00
2019-02-08T11:16:23.389Z,6472.00
2019-02-08T11:18:27.563Z,7096.00
2019-02-08T11:19:27.800Z,6948.00
2019-02-08T11:21:31.973Z,8812.00
2019-02-08T11:22:32.190Z,9336.00
2019-02-08T11:24:36.374Z,11612.00
2019-02-08T11:25:36.608Z,12424.00
2019-02-08T11:27:29.718Z,10300.00
2019-02-08T11:28:29.956Z,13568.00
2019-02-08T11:30:34.116Z,11140.00
2019-02-08T11:31:34.354Z,10932.00
2019-02-08T11:33:38.527Z,8564.00
2019-02-08T11:34:38.769Z,8488.00
2019-02-08T11:36:43.939Z,10276.00
2019-02-08T11:37:44.171Z,9328.00
2019-02-08T11:39:49.392Z,10368.00
2019-02-08T11:40:49.638Z,8612.00
2019-02-08T11:42:53.814Z,11148.00
2019-02-08T11:43:54.039Z,12224.00
2019-02-08T11:45:58.191Z,13764.00
2019-02-08T11:46:58.430Z,14872.00
2019-02-08T11:49:02.606Z,20448.00
2019-02-08T11:50:02.844Z,13092.00
2019-02-08T11:52:06.995Z,17664.00
2019-02-08T11:53:07.248Z,11888.00
2019-02-08T11:55:11.414Z,14624.00
2019-02-08T11:56:11.650Z,11688.00
2019-02-08T11:58:15.824Z,16668.00
2019-02-08T11:59:16.072Z,13820.00
2019-02-08T12:01:20.222Z,12324.00
2019-02-08T12:02:20.465Z,15512.00
2019-02-08T12:04:24.642Z,11876.00
2019-02-08T12:05:24.869Z,13376.00
2019-02-08T12:07:17.953Z,16436.00
2019-02-08T12:08:18.192Z,21472.00
2019-02-08T12:10:22.360Z,15644.00
2019-02-08T12:11:22.594Z,13748.00
2019-02-08T12:13:27.655Z,10048.00
2019-02-08T12:14:27.861Z,10880.00
2019-02-08T12:16:32.021Z,11588.00
2019-02-08T12:17:32.261Z,10568.00
2019-02-08T12:19:36.442Z,10352.00
2019-02-08T12:20:36.679Z,10208.00
2019-02-08T12:22:40.831Z,7548.00
2019-02-08T12:23:41.071Z,8536.00
2019-02-08T12:25:45.244Z,9096.00
2019-02-08T12:26:45.489Z,8548.00
2019-02-08T12:28:49.658Z,8964.00
2019-02-08T12:29:49.899Z,9324.00
2019-02-08T12:31:54.055Z,8304.00
2019-02-08T12:32:54.291Z,7852.00
2019-02-08T12:34:58.468Z,7892.00
2019-02-08T12:35:58.706Z,7676.00
2019-02-08T12:38:02.859Z,7220.00
2019-02-08T12:39:03.096Z,6748.00
2019-02-08T12:41:09.812Z,6488.00
2019-02-08T12:42:07.509Z,6444.00
2019-02-08T12:44:11.693Z,7508.00
2019-02-08T12:45:11.969Z,7476.00
2019-02-08T12:47:05.096Z,6296.00
2019-02-08T12:48:05.440Z,6388.00
2019-02-08T12:50:10.419Z,8336.00
2019-02-08T12:51:10.006Z,8228.00
2019-02-08T12:53:14.246Z,7032.00
2019-02-08T12:54:14.659Z,7216.00
2019-02-08T12:56:19.007Z,8524.00
2019-02-08T12:57:19.165Z,7924.00
2019-02-08T12:59:23.413Z,6920.00
2019-02-08T13:00:23.642Z,6368.00
2019-02-08T13:02:27.853Z,6548.00
2019-02-08T13:03:28.089Z,6020.00
2019-02-08T13:05:32.351Z,4964.00
2019-02-08T13:06:32.586Z,4624.00
2019-02-08T13:08:36.766Z,4616.00
2019-02-08T13:09:37.128Z,4676.00
2019-02-08T13:11:41.446Z,4796.00
2019-02-08T13:12:41.791Z,4872.00
2019-02-08T13:14:45.938Z,4188.00
2019-02-08T13:15:46.278Z,4072.00
2019-02-08T13:17:50.470Z,4352.00
2019-02-08T13:18:50.720Z,4432.00
2019-02-08T13:20:54.897Z,4404.00
2019-02-08T13:21:55.153Z,4288.00
2019-02-08T13:23:59.358Z,3952.00
2019-02-08T13:24:59.725Z,3936.00
2019-02-08T13:26:53.194Z,4372.00
2019-02-08T13:27:53.285Z,4296.00
2019-02-08T13:29:57.494Z,4744.00
2019-02-08T13:30:57.717Z,4548.00
2019-02-08T13:33:02.014Z,5516.00
2019-02-08T13:34:02.331Z,5604.00
2019-02-08T13:36:06.637Z,4912.00
2019-02-08T13:37:07.038Z,4272.00
2019-02-08T13:39:11.214Z,4244.00
2019-02-08T13:40:11.453Z,3544.00
2019-02-08T13:42:15.621Z,3864.00
2019-02-08T13:43:16.040Z,3940.00
2019-02-08T13:45:20.203Z,3500.00
2019-02-08T13:46:20.435Z,3336.00
2019-02-08T13:48:24.611Z,3428.00
2019-02-08T13:49:24.847Z,3264.00
2019-02-08T13:51:29.024Z,4000.00
2019-02-08T13:52:29.361Z,3792.00
2019-02-08T13:54:33.525Z,3584.00
2019-02-08T13:55:33.905Z,3652.00
2019-02-08T13:57:27.072Z,4388.00
2019-02-08T13:58:27.386Z,6016.00
2019-02-08T14:00:31.575Z,7600.00
2019-02-08T14:01:31.899Z,7300.00
2019-02-08T14:03:36.066Z,6580.00
2019-02-08T14:04:36.329Z,6188.00
2019-02-08T14:06:40.680Z,5960.00
2019-02-08T14:07:40.993Z,6048.00
2019-02-08T14:09:45.143Z,6104.00
2019-02-08T14:10:45.377Z,5956.00
2019-02-08T14:12:49.559Z,5480.00
2019-02-08T14:13:49.967Z,4980.00
2019-02-08T14:15:54.180Z,4752.00
2019-02-08T14:16:54.431Z,4624.00
2019-02-08T14:18:58.791Z,4124.00
2019-02-08T14:19:58.903Z,3924.00
2019-02-08T14:22:03.105Z,3424.00
2019-02-08T14:23:03.337Z,3224.00
2019-02-08T14:25:19.870Z,3092.00
2019-02-08T14:26:20.150Z,3080.00
2019-02-08T14:28:24.346Z,3048.00
2019-02-08T14:29:24.581Z,2908.00
2019-02-08T14:31:28.805Z,2660.00
2019-02-08T14:32:29.113Z,2624.00
2019-02-08T14:34:33.279Z,2976.00
2019-02-08T14:35:33.606Z,3248.00
2019-02-08T14:37:26.850Z,3220.00
2019-02-08T14:38:26.947Z,3176.00
2019-02-08T14:40:31.111Z,2908.00
2019-02-08T14:41:32.112Z,2864.00
2019-02-08T14:43:35.830Z,2692.00
2019-02-08T14:44:36.212Z,2552.00
2019-02-08T14:46:40.444Z,2316.00
2019-02-08T14:47:41.977Z,2336.00
2019-02-08T14:49:44.967Z,2376.00
2019-02-08T14:50:45.349Z,2436.00
2019-02-08T14:52:49.663Z,2564.00
2019-02-08T14:53:49.893Z,2436.00
2019-02-08T14:55:54.081Z,2792.00
2019-02-08T14:56:54.315Z,2820.00
2019-02-08T14:58:58.523Z,2728.00
2019-02-08T14:59:58.753Z,2644.00
2019-02-08T15:02:02.897Z,2652.00
2019-02-08T15:03:03.165Z,2624.00
2019-02-08T15:05:08.566Z,2640.00
2019-02-08T15:06:09.453Z,2628.00
2019-02-08T15:08:12.883Z,3180.00
2019-02-08T15:09:12.902Z,3464.00
2019-02-08T15:11:17.058Z,3380.00
2019-02-08T15:12:17.320Z,3364.00
2019-02-08T15:14:21.651Z,3592.00
2019-02-08T15:15:22.048Z,3560.00
2019-02-08T15:17:15.167Z,3328.00
2019-02-08T15:18:16.077Z,3372.00
2019-02-08T15:20:19.733Z,3016.00
2019-02-08T15:21:20.009Z,2768.00
2019-02-08T15:23:24.418Z,2436.00
2019-02-08T15:24:24.434Z,2284.00
2019-02-08T15:26:28.636Z,2236.00
2019-02-08T15:27:28.939Z,2028.00
2019-02-08T15:29:34.166Z,1876.00
2019-02-08T15:30:35.122Z,2032.00
2019-02-08T15:32:39.683Z,1932.00
2019-02-08T15:33:39.938Z,1768.00
2019-02-08T15:35:45.135Z,1732.00
2019-02-08T15:36:49.164Z,1548.00
2019-02-08T15:38:49.578Z,1252.00
2019-02-08T15:39:49.814Z,1080.00
2019-02-08T15:41:53.983Z,804.00
2019-02-08T15:42:54.191Z,816.00
2019-02-08T15:44:58.420Z,776.00
2019-02-08T15:45:58.651Z,756.00
2019-02-08T15:48:02.887Z,732.00
2019-02-08T15:49:03.159Z,624.00
2019-02-08T15:51:07.331Z,488.00
2019-02-08T15:52:07.578Z,452.00
2019-02-08T15:54:11.783Z,440.00
2019-02-08T15:55:12.058Z,444.00
2019-02-08T15:57:05.137Z,372.00
2019-02-08T15:58:05.402Z,340.00
2019-02-08T16:00:09.573Z,280.00
2019-02-08T16:01:09.835Z,260.00
2019-02-08T16:03:14.013Z,276.00
2019-02-08T16:04:14.233Z,272.00
2019-02-08T16:06:18.399Z,228.00
2019-02-08T16:07:18.660Z,208.00
2019-02-08T16:09:22.826Z,208.00
2019-02-08T16:10:23.059Z,212.00
2019-02-08T16:12:27.231Z,208.00
2019-02-08T16:13:27.452Z,196.00
2019-02-08T16:15:31.623Z,180.00
2019-02-08T16:16:31.864Z,188.00
2019-02-08T16:18:36.031Z,148.00
2019-02-08T16:19:36.268Z,132.00
2019-02-08T16:21:40.413Z,100.00
2019-02-08T16:22:40.651Z,84.00
2019-02-08T16:24:44.820Z,72.00
2019-02-08T16:25:45.056Z,60.00
2019-02-08T16:27:49.198Z,48.00
2019-02-08T16:28:49.441Z,44.00
2019-02-08T16:30:53.603Z,28.00
2019-02-08T16:31:53.837Z,28.00
2019-02-08T16:33:58.037Z,20.00
2019-02-08T16:34:58.239Z,16.00
2019-02-08T16:36:51.312Z,12.00
2019-02-08T16:37:51.555Z,12.00
2019-02-08T16:39:55.714Z,8.00
2019-02-08T16:40:55.952Z,8.00
2019-02-08T16:43:00.100Z,4.00
2019-02-08T16:44:00.335Z,4.00
2019-02-08T16:46:04.502Z,4.00
2019-02-08T16:47:04.738Z,0.00
2019-02-08T16:49:08.887Z,0.00
2019-02-08T16:50:09.122Z,0.00
2019-02-08T16:52:13.294Z,0.00
2019-02-08T16:53:13.532Z,0.00
2019-02-08T16:55:17.710Z,0.00
2019-02-08T16:56:17.942Z,0.00
2019-02-08T16:58:22.087Z,0.00
2019-02-08T16:59:22.324Z,0.00
2019-02-08T17:01:26.490Z,0.00
2019-02-08T17:02:26.729Z,0.00
2019-02-08T17:04:30.899Z,0.00
2019-02-08T17:05:31.136Z,0.00
2019-02-08T17:07:24.232Z,0.00
2019-02-08T17:08:24.470Z,0.00
2019-02-08T17:10:28.637Z,0.00
2019-02-08T17:11:28.878Z,0.00
2019-02-08T17:13:33.027Z,0.00
2019-02-08T17:14:33.291Z,0.00
2019-02-08T17:16:37.425Z,0.00
2019-02-08T17:17:37.661Z,0.00
2019-02-08T17:19:41.826Z,0.00
2019-02-08T17:20:42.050Z,0.00
2019-02-08T17:22:46.220Z,0.00
2019-02-08T17:23:46.455Z,0.00
2019-02-08T17:25:50.624Z,0.00
2019-02-08T17:26:50.861Z,0.00
2019-02-08T17:28:55.006Z,0.00
2019-02-08T17:29:55.315Z,0.00
2019-02-08T17:31:59.457Z,0.00
2019-02-08T17:32:59.730Z,0.00
2019-02-08T17:35:03.876Z,0.00
2019-02-08T17:36:04.111Z,0.00
2019-02-08T17:38:08.360Z,0.00
2019-02-08T17:39:08.621Z,0.00
2019-02-08T17:41:12.787Z,0.00
2019-02-08T17:42:13.026Z,0.00
2019-02-08T17:44:17.197Z,0.00
2019-02-08T17:45:17.455Z,0.00
2019-02-08T17:47:10.587Z,0.00
2019-02-08T17:48:10.813Z,0.00
2019-02-08T17:50:14.972Z,0.00
2019-02-08T17:51:15.255Z,0.00
2019-02-08T17:53:19.423Z,0.00
2019-02-08T17:54:25.533Z,0.00
2019-02-08T17:56:23.863Z,0.00
2019-02-08T17:57:24.133Z,0.00
2019-02-08T17:59:28.291Z,0.00
2019-02-08T18:00:28.525Z,0.00
2019-02-08T18:02:32.731Z,0.00
2019-02-08T18:03:32.962Z,0.00
2019-02-08T18:05:37.140Z,0.00
2019-02-08T18:06:37.396Z,0.00
2019-02-08T18:08:41.624Z,0.00
2019-02-08T18:09:41.859Z,0.00
2019-02-08T18:11:46.073Z,0.00
2019-02-08T18:12:46.344Z,0.00
2019-02-08T18:14:50.539Z,0.00
2019-02-08T18:15:50.770Z,0.00
2019-02-08T18:17:54.944Z,0.00
2019-02-08T18:18:55.174Z,0.00
2019-02-08T18:20:59.321Z,0.00
2019-02-08T18:21:59.557Z,0.00
2019-02-08T18:24:03.728Z,0.00
2019-02-08T18:25:04.049Z,0.00
2019-02-08T18:26:57.126Z,0.00
2019-02-08T18:27:57.360Z,0.00
2019-02-08T18:30:01.586Z,0.00
2019-02-08T18:31:01.865Z,0.00
2019-02-08T18:33:06.034Z,0.00
2019-02-08T18:34:06.380Z,0.00
2019-02-08T18:36:10.555Z,0.00
2019-02-08T18:37:10.824Z,0.00
2019-02-08T18:39:14.989Z,0.00
2019-02-08T18:40:15.225Z,0.00
2019-02-08T18:42:19.455Z,0.00
2019-02-08T18:43:19.729Z,0.00
2019-02-08T18:45:23.908Z,0.00
2019-02-08T18:46:24.166Z,0.00
2019-02-08T18:48:28.409Z,0.00
2019-02-08T18:49:28.644Z,0.00
2019-02-08T18:51:33.813Z,0.00
2019-02-08T18:52:34.047Z,0.00
2019-02-08T18:54:38.211Z,0.00
2019-02-08T18:55:38.476Z,0.00
2019-02-08T18:57:31.593Z,0.00
2019-02-08T18:58:31.898Z,0.00
2019-02-08T19:00:39.919Z,0.00
2019-02-08T19:01:37.318Z,0.00
2019-02-08T19:03:41.535Z,0.00
2019-02-08T19:04:41.772Z,0.00
2019-02-08T19:06:45.954Z,0.00
2019-02-08T19:07:46.222Z,0.00
2019-02-08T19:09:50.404Z,0.00
2019-02-08T19:10:50.630Z,0.00
2019-02-08T19:12:54.774Z,0.00
2019-02-08T19:13:55.012Z,0.00
2019-02-08T19:15:59.180Z,0.00
2019-02-08T19:16:59.428Z,0.00
2019-02-08T19:19:03.587Z,0.00
2019-02-08T19:20:03.821Z,0.00
2019-02-08T19:22:07.964Z,0.00
2019-02-08T19:23:08.197Z,0.00